Time;durP1;ratioP1;P1;durP2;ratioP2;P2;SDS_P1;SDS_P2;PMS_P1;PMS_P2;Temp;Humidity;BMP_temperature;BMP_pressure;BME280_temperature;BME280_humidity;BME280_pressure;Samples;Min_cycle;Max_cycle;Signal;HPM_P1;HPM_P2
2022/01/05 00:01:00;;;;;;;0.50;0.50;;;;;;;6.86;91.85;94878.84;5060472;28;20197;-71
2022/01/05 00:03:27;;;;;;;0.63;0.63;;;;;;;6.72;93.11;94874.50;5058963;28;20661;-72
2022/01/05 00:05:55;;;;;;;2.00;1.23;;;;;;;7.20;92.96;94865.88;5059155;28;20410;-72
2022/01/05 00:08:24;;;;;;;1.07;0.77;;;;;;;7.07;91.97;94857.91;5059425;28;20196;-72
2022/01/05 00:10:51;;;;;;;0.70;0.70;;;;;;;6.64;92.42;94858.13;5060060;28;20959;-72
2022/01/05 00:13:18;;;;;;;1.60;1.03;;;;;;;6.84;92.88;94845.03;5058431;28;20234;-72
2022/01/05 00:15:44;;;;;;;1.10;1.00;;;;;;;6.93;91.70;94845.72;5059900;28;20227;-72
2022/01/05 00:18:11;;;;;;;0.60;0.60;;;;;;;6.70;92.19;94852.94;5062300;28;20201;-72
2022/01/05 00:20:37;;;;;;;1.93;1.20;;;;;;;7.06;91.58;94837.97;5062138;28;20205;-72
2022/01/05 00:23:05;;;;;;;0.80;0.80;;;;;;;7.11;92.90;94836.38;5060698;28;20216;-72
2022/01/05 00:25:32;;;;;;;1.60;1.07;;;;;;;6.87;92.34;94834.19;5061762;28;20323;-72
2022/01/05 00:27:58;;;;;;;0.90;0.70;;;;;;;7.01;92.51;94816.75;5061584;28;20537;-72
2022/01/05 00:30:25;;;;;;;0.87;0.83;;;;;;;6.95;92.10;94812.28;5061821;28;20203;-72
2022/01/05 00:32:51;;;;;;;2.13;0.90;;;;;;;7.03;91.80;94814.78;5060692;28;20680;-72
2022/01/05 00:35:18;;;;;;;0.53;0.53;;;;;;;6.91;91.42;94800.56;5061918;28;20228;-72
2022/01/05 00:37:44;;;;;;;0.77;0.50;;;;;;;6.82;92.06;94804.31;5061865;28;20197;-72
2022/01/05 00:40:12;;;;;;;0.63;0.63;;;;;;;7.09;91.89;94799.13;5061299;28;20557;-72
2022/01/05 00:42:39;;;;;;;1.17;1.03;;;;;;;7.17;91.56;94795.56;5060952;28;20561;-72
2022/01/05 00:45:06;;;;;;;1.17;0.30;;;;;;;7.17;91.54;94791.09;5060882;28;20220;-72
2022/01/05 00:47:33;;;;;;;0.53;0.53;;;;;;;7.13;90.99;94789.88;5061897;28;20207;-72
2022/01/05 00:50:00;;;;;;;0.40;0.40;;;;;;;7.11;90.47;94778.75;5061048;28;20202;-72
2022/01/05 00:52:26;;;;;;;0.37;0.37;;;;;;;7.08;90.92;94780.97;5060328;28;20228;-72
2022/01/05 00:54:53;;;;;;;0.77;0.70;;;;;;;6.94;91.81;94776.66;5061176;28;20220;-72
2022/01/05 00:57:21;;;;;;;0.50;0.50;;;;;;;7.31;91.56;94793.59;5061142;28;20201;-72
2022/01/05 00:59:48;;;;;;;3.57;1.17;;;;;;;6.84;91.22;94795.28;5061482;28;20295;-72
2022/01/05 01:02:14;;;;;;;1.27;0.77;;;;;;;6.88;92.92;94791.28;5060517;28;21004;-72
2022/01/05 01:04:41;;;;;;;0.63;0.63;;;;;;;6.92;91.79;94796.97;5061652;28;20239;-72
2022/01/05 01:07:07;;;;;;;1.40;1.10;;;;;;;6.78;92.29;94803.09;5062392;28;20215;-72
2022/01/05 01:09:34;;;;;;;2.40;1.10;;;;;;;6.77;93.18;94798.84;5062425;28;20247;-72
2022/01/05 01:12:00;;;;;;;0.70;0.70;;;;;;;6.92;92.49;94792.53;5061383;28;20221;-72
2022/01/05 01:14:28;;;;;;;1.17;0.87;;;;;;;7.19;92.51;94804.81;5060258;28;20233;-72
2022/01/05 01:16:55;;;;;;;0.30;0.30;;;;;;;6.76;92.88;94807.72;5060687;28;20204;-72
2022/01/05 01:19:21;;;;;;;0.30;0.30;;;;;;;6.91;92.07;94803.19;5062196;28;20204;-72
2022/01/05 01:21:48;;;;;;;0.40;0.40;;;;;;;6.99;91.86;94808.31;5060231;28;20220;-72
2022/01/05 01:24:14;;;;;;;0.50;0.50;;;;;;;7.02;92.29;94807.91;5060460;28;21125;-72
2022/01/05 01:26:41;;;;;;;1.37;0.77;;;;;;;6.71;92.39;94807.47;5061681;28;20205;-72
2022/01/05 01:29:07;;;;;;;0.67;0.50;;;;;;;6.76;92.90;94803.28;5062022;28;20207;-72
2022/01/05 01:31:35;;;;;;;0.30;0.30;;;;;;;7.01;93.59;94812.31;5060858;28;20228;-72
2022/01/05 01:34:02;;;;;;;1.37;0.80;;;;;;;6.80;93.53;94801.09;5060844;28;20722;-72
2022/01/05 01:36:28;;;;;;;0.40;0.40;;;;;;;6.74;93.91;94814.94;5061170;28;20286;-72
2022/01/05 01:38:55;;;;;;;0.20;0.20;;;;;;;6.99;93.37;94813.53;5061256;28;20334;-72
2022/01/05 01:41:21;;;;;;;0.47;0.47;;;;;;;6.87;93.25;94810.63;5061256;28;20211;-72
2022/01/05 01:43:48;;;;;;;0.73;0.57;;;;;;;6.75;93.85;94811.31;5059802;28;20219;-72
2022/01/05 01:46:15;;;;;;;0.37;0.37;;;;;;;6.71;94.69;94807.47;5060997;28;20228;-72
2022/01/05 01:48:43;;;;;;;0.90;0.63;;;;;;;6.98;93.27;94820.56;5061502;28;20211;-72
2022/01/05 01:51:09;;;;;;;0.40;0.40;;;;;;;6.55;94.14;94831.25;5062363;28;20205;-72
2022/01/05 01:53:36;;;;;;;0.57;0.50;;;;;;;6.54;93.80;94834.84;5056667;28;20350;-72
2022/01/05 01:56:04;;;;;;;0.30;0.30;;;;;;;6.74;94.36;94823.56;5057621;28;20228;-72
2022/01/05 01:58:34;;;;;;;0.50;0.50;;;;;;;6.88;93.89;94821.91;5057515;28;20201;-72
2022/01/05 02:01:01;;;;;;;0.57;0.57;;;;;;;6.69;93.87;94818.13;5057469;28;20200;-72
2022/01/05 02:03:28;;;;;;;0.20;0.20;;;;;;;6.67;93.88;94814.06;5055580;28;20222;-72
2022/01/05 02:05:56;;;;;;;0.20;0.20;;;;;;;6.48;94.72;94816.47;5057464;28;20220;-72
2022/01/05 02:08:23;;;;;;;0.73;0.73;;;;;;;6.55;94.44;94810.31;5056935;28;20211;-72
2022/01/05 02:10:51;;;;;;;0.33;0.33;;;;;;;6.73;93.79;94813.31;5060245;28;20201;-72
2022/01/05 02:13:18;;;;;;;0.30;0.30;;;;;;;6.55;93.52;94820.78;5061903;28;20224;-72
2022/01/05 02:15:45;;;;;;;0.50;0.50;;;;;;;6.60;93.65;94815.00;5062575;28;20225;-72
2022/01/05 02:18:57;;;;;;;0.70;0.70;;;;;;;6.64;93.59;94809.19;5064131;28;20213;-72
2022/01/05 02:21:11;;;;;;;0.20;0.20;;;;;;;6.73;93.73;94810.69;5060839;28;20258;-72
2022/01/05 02:23:38;;;;;;;0.30;0.30;;;;;;;6.40;94.38;94814.00;5060464;28;20200;-72
2022/01/05 02:26:08;;;;;;;0.20;0.20;;;;;;;6.78;93.61;94818.78;5060566;28;20401;-72
2022/01/05 02:28:34;;;;;;;0.20;0.20;;;;;;;6.51;93.35;94803.03;5060883;28;20197;-72
2022/01/05 02:31:03;;;;;;;0.20;0.20;;;;;;;6.29;94.05;94815.28;5063344;28;20214;-72
2022/01/05 02:33:30;;;;;;;0.30;0.30;;;;;;;6.49;93.91;94805.84;5061061;28;20216;-72
2022/01/05 02:35:57;;;;;;;0.30;0.30;;;;;;;6.60;93.90;94801.91;5062236;28;20597;-72
2022/01/05 02:38:25;;;;;;;0.20;0.20;;;;;;;6.76;93.58;94797.25;5062256;28;20197;-72
2022/01/05 02:40:53;;;;;;;0.20;0.20;;;;;;;6.92;92.68;94810.03;5062106;28;20200;-72
2022/01/05 02:43:20;;;;;;;0.20;0.20;;;;;;;6.63;92.45;94804.94;5060648;28;20645;-72
2022/01/05 02:45:46;;;;;;;0.30;0.30;;;;;;;6.54;93.28;94798.22;5061505;28;20227;-72
2022/01/05 02:48:13;;;;;;;0.20;0.20;;;;;;;6.47;93.49;94802.59;5060041;28;20200;-72
2022/01/05 02:50:39;;;;;;;0.40;0.33;;;;;;;6.44;92.98;94810.84;5056803;28;20298;-72
2022/01/05 02:53:06;;;;;;;0.50;0.50;;;;;;;6.41;94.04;94813.00;5056220;28;20240;-72
2022/01/05 02:55:34;;;;;;;0.20;0.20;;;;;;;6.91;93.25;94792.72;5056704;28;20222;-72
2022/01/05 02:58:00;;;;;;;0.40;0.40;;;;;;;6.65;92.73;94806.38;5056968;28;20743;-71
2022/01/05 03:00:27;;;;;;;0.30;0.30;;;;;;;6.42;93.54;94812.81;5056802;28;20236;-72
2022/01/05 03:02:53;;;;;;;0.20;0.20;;;;;;;6.63;92.67;94807.56;5056504;28;20202;-72
2022/01/05 03:05:20;;;;;;;0.30;0.30;;;;;;;6.63;92.49;94791.06;5056172;28;20699;-72
2022/01/05 03:07:47;;;;;;;0.30;0.30;;;;;;;6.74;92.25;94794.00;5056704;28;20247;-72
2022/01/05 03:10:14;;;;;;;0.50;0.50;;;;;;;6.78;92.42;94790.00;5056716;28;20204;-72
2022/01/05 03:12:44;;;;;;;0.30;0.30;;;;;;;6.95;92.57;94788.72;5055766;28;20227;-72
2022/01/05 03:15:11;;;;;;;0.30;0.30;;;;;;;6.23;94.12;94784.66;5057587;28;20224;-72
2022/01/05 03:17:38;;;;;;;0.30;0.30;;;;;;;6.57;93.91;94800.50;5060960;28;21029;-72
2022/01/05 03:20:06;;;;;;;0.57;0.40;;;;;;;6.79;93.10;94796.84;5060545;28;20202;-72
2022/01/05 03:22:33;;;;;;;0.20;0.20;;;;;;;6.59;93.43;94798.47;5060055;28;21336;-72
2022/01/05 03:24:59;;;;;;;0.30;0.30;;;;;;;6.45;93.17;94809.81;5060166;28;20228;-72
2022/01/05 03:27:26;;;;;;;0.20;0.20;;;;;;;6.69;92.15;94815.50;5060668;28;20669;-72
2022/01/05 03:29:54;;;;;;;0.27;0.27;;;;;;;6.58;93.51;94807.34;5059682;28;20843;-72
2022/01/05 03:32:21;;;;;;;0.30;0.30;;;;;;;6.66;93.29;94812.44;5059910;28;20224;-73
2022/01/05 03:34:50;;;;;;;0.20;0.20;;;;;;;6.39;92.70;94815.81;5060786;28;21460;-72
2022/01/05 03:37:16;;;;;;;0.20;0.20;;;;;;;6.34;93.65;94819.94;5060605;28;20200;-71
2022/01/05 03:39:43;;;;;;;1.03;0.53;;;;;;;6.28;93.01;94815.50;5060727;28;20205;-72
2022/01/05 03:42:10;;;;;;;0.20;0.20;;;;;;;6.56;92.92;94811.94;5060415;28;20688;-72
2022/01/05 03:44:36;;;;;;;0.30;0.30;;;;;;;6.55;92.12;94814.75;5060581;28;20227;-72
2022/01/05 03:47:05;;;;;;;0.33;0.33;;;;;;;6.16;94.06;94820.38;5059646;28;20232;-72
2022/01/05 03:49:31;;;;;;;0.43;0.40;;;;;;;6.00;94.48;94822.41;5059748;28;20215;-72
2022/01/05 03:51:58;;;;;;;0.30;0.30;;;;;;;6.07;93.99;94821.50;5060315;28;20208;-73
2022/01/05 03:54:24;;;;;;;0.20;0.20;;;;;;;6.13;93.90;94831.19;5059560;28;20224;-72
2022/01/05 03:56:51;;;;;;;0.30;0.30;;;;;;;6.19;94.04;94827.84;5059599;28;20211;-73
2022/01/05 03:59:17;;;;;;;0.30;0.30;;;;;;;6.17;94.31;94827.25;5060814;28;20208;-72
2022/01/05 04:01:44;;;;;;;0.30;0.30;;;;;;;6.01;93.61;94846.72;5059156;28;20200;-71
2022/01/05 04:04:11;;;;;;;0.30;0.30;;;;;;;6.32;94.61;94838.44;5059356;28;20205;-73
2022/01/05 04:06:38;;;;;;;0.40;0.40;;;;;;;5.98;94.85;94834.84;5060036;28;20979;-72
2022/01/05 04:09:04;;;;;;;0.40;0.40;;;;;;;5.58;95.88;94834.50;5060396;28;20222;-72
2022/01/05 04:11:31;;;;;;;0.30;0.30;;;;;;;6.34;93.84;94836.47;5059528;28;20212;-72
2022/01/05 04:13:57;;;;;;;0.27;0.27;;;;;;;5.99;94.01;94849.53;5059650;28;20224;-72
2022/01/05 04:16:24;;;;;;;0.20;0.20;;;;;;;5.78;94.44;94840.81;5059233;28;20224;-72
2022/01/05 04:18:50;;;;;;;0.30;0.30;;;;;;;6.09;94.48;94845.63;5059368;28;20205;-72
2022/01/05 04:21:18;;;;;;;0.20;0.20;;;;;;;6.39;94.45;94836.75;5060046;28;20917;-72
2022/01/05 04:23:45;;;;;;;0.20;0.20;;;;;;;6.04;94.00;94840.16;5058779;28;20315;-72
2022/01/05 04:26:11;;;;;;;0.30;0.30;;;;;;;6.00;94.28;94840.72;5058322;28;20231;-72
2022/01/05 04:28:38;;;;;;;0.20;0.20;;;;;;;6.00;95.30;94845.94;5059499;28;20203;-72
2022/01/05 04:31:04;;;;;;;0.20;0.20;;;;;;;6.07;94.18;94850.25;5059981;28;20208;-72
2022/01/05 04:33:31;;;;;;;0.20;0.20;;;;;;;6.12;94.30;94857.53;5058622;28;20224;-72
2022/01/05 04:35:57;;;;;;;0.20;0.20;;;;;;;6.16;94.09;94862.22;5058971;28;20720;-72
2022/01/05 04:38:25;;;;;;;0.20;0.20;;;;;;;6.22;94.25;94866.75;5059342;28;20197;-72
2022/01/05 04:40:51;;;;;;;0.20;0.20;;;;;;;6.14;94.34;94863.41;5058537;28;20208;-71
2022/01/05 04:43:18;;;;;;;0.73;0.60;;;;;;;6.04;94.62;94865.50;5058545;28;20200;-72
2022/01/05 04:45:44;;;;;;;1.13;1.13;;;;;;;6.06;94.69;94874.78;5058855;28;20231;-72
2022/01/05 04:48:11;;;;;;;0.20;0.20;;;;;;;5.96;93.85;94880.44;5059030;28;20201;-71
2022/01/05 04:50:37;;;;;;;0.20;0.20;;;;;;;5.97;94.53;94872.44;5062162;28;20395;-71
2022/01/05 04:53:04;;;;;;;0.27;0.27;;;;;;;6.22;94.24;94878.97;5067706;28;20239;-71
2022/01/05 04:55:32;;;;;;;0.20;0.20;;;;;;;6.38;94.82;94866.50;5067386;28;20220;-71
2022/01/05 04:57:58;;;;;;;0.30;0.30;;;;;;;6.37;93.53;94864.88;5066047;28;20215;-71
2022/01/05 05:00:25;;;;;;;0.20;0.20;;;;;;;5.97;94.25;94862.00;5068137;28;20197;-71
2022/01/05 05:02:52;;;;;;;0.20;0.20;;;;;;;6.36;93.25;94847.56;5066313;28;20204;-71
2022/01/05 05:05:18;;;;;;;0.67;0.67;;;;;;;6.04;93.78;94850.59;5068069;28;20224;-71
2022/01/05 05:07:45;;;;;;;1.00;0.77;;;;;;;5.68;96.10;94855.94;5065622;28;20213;-71
2022/01/05 05:10:11;;;;;;;0.40;0.40;;;;;;;5.91;94.03;94859.31;5066778;28;20201;-71
2022/01/05 05:12:39;;;;;;;0.30;0.30;;;;;;;6.30;94.87;94858.78;5064956;28;20235;-71
2022/01/05 05:15:06;;;;;;;0.47;0.40;;;;;;;6.30;92.91;94853.53;5064968;28;21080;-71
2022/01/05 05:17:33;;;;;;;0.50;0.50;;;;;;;5.95;94.04;94861.34;5064757;28;20212;-71
2022/01/05 05:20:00;;;;;;;0.30;0.30;;;;;;;5.60;94.25;94863.84;5065984;28;20212;-71
2022/01/05 05:22:26;;;;;;;2.87;1.07;;;;;;;5.90;92.96;94861.09;5066139;28;20940;-71
2022/01/05 05:24:53;;;;;;;0.30;0.30;;;;;;;5.82;94.03;94863.81;5068564;28;20231;-71
2022/01/05 05:27:19;;;;;;;0.33;0.33;;;;;;;5.83;93.39;94869.84;5067585;28;20201;-71
2022/01/05 05:29:47;;;;;;;0.20;0.20;;;;;;;6.14;94.05;94858.16;5066746;28;20207;-71
2022/01/05 05:32:13;;;;;;;0.40;0.40;;;;;;;5.72;93.92;94865.03;5066436;28;20212;-72
2022/01/05 05:34:40;;;;;;;0.40;0.40;;;;;;;6.06;93.15;94866.94;5065959;28;20235;-72
2022/01/05 05:37:07;;;;;;;6.67;1.13;;;;;;;5.54;94.91;94864.59;5066954;28;20278;-71
2022/01/05 05:39:34;;;;;;;0.50;0.50;;;;;;;5.74;93.87;94860.44;5067008;28;20551;-71
2022/01/05 05:42:00;;;;;;;0.40;0.40;;;;;;;5.54;94.53;94864.59;5066398;28;20208;-71
2022/01/05 05:44:27;;;;;;;0.40;0.40;;;;;;;5.51;93.42;94868.38;5068407;28;20220;-71
2022/01/05 05:46:55;;;;;;;0.50;0.50;;;;;;;5.91;94.25;94867.94;5067263;28;20207;-71
2022/01/05 05:49:21;;;;;;;2.07;1.63;;;;;;;5.84;93.78;94855.78;5064943;28;20211;-71
2022/01/05 05:51:47;;;;;;;0.60;0.60;;;;;;;5.49;94.32;94859.91;5066966;28;20238;-71
2022/01/05 05:54:14;;;;;;;0.30;0.30;;;;;;;5.54;94.52;94865.41;5068121;28;20228;-72
2022/01/05 05:56:40;;;;;;;1.17;0.67;;;;;;;5.74;93.83;94860.44;5066843;28;20204;-71
2022/01/05 05:59:07;;;;;;;1.47;0.90;;;;;;;5.63;93.42;94868.75;5067400;28;20201;-71
2022/01/05 06:01:33;;;;;;;0.47;0.47;;;;;;;5.58;93.42;94871.88;5066713;28;20196;-71
2022/01/05 06:04:01;;;;;;;1.13;0.40;;;;;;;5.80;93.55;94873.63;5066775;28;20216;-71
2022/01/05 06:06:28;;;;;;;0.40;0.40;;;;;;;5.72;93.03;94883.34;5065844;28;20235;-71
2022/01/05 06:08:55;;;;;;;0.40;0.40;;;;;;;5.68;93.72;94882.09;5065035;28;20208;-71
2022/01/05 06:11:22;;;;;;;0.30;0.30;;;;;;;5.71;93.70;94881.72;5062327;28;20201;-72
2022/01/05 06:13:49;;;;;;;0.40;0.30;;;;;;;5.85;93.05;94878.31;5063563;28;20224;-72
2022/01/05 06:16:16;;;;;;;0.30;0.30;;;;;;;5.81;93.18;94893.53;5063723;28;20224;-72
2022/01/05 06:18:42;;;;;;;0.83;0.83;;;;;;;5.60;93.69;94889.97;5065765;28;20213;-72
2022/01/05 06:21:10;;;;;;;1.30;0.60;;;;;;;5.87;94.31;94900.66;5063396;28;20672;-72
2022/01/05 06:23:37;;;;;;;0.30;0.30;;;;;;;5.55;94.08;94903.59;5062271;28;20220;-72
2022/01/05 06:26:03;;;;;;;0.40;0.40;;;;;;;5.65;93.99;94900.72;5060145;28;20591;-72
2022/01/05 06:28:30;;;;;;;1.37;0.67;;;;;;;5.49;94.69;94908.72;5057676;28;20201;-72
2022/01/05 06:30:57;;;;;;;0.47;0.47;;;;;;;5.43;94.59;94913.84;5056839;28;20208;-72
2022/01/05 06:33:23;;;;;;;0.40;0.40;;;;;;;5.55;94.72;94902.81;5056801;28;20228;-72
2022/01/05 06:35:50;;;;;;;0.40;0.40;;;;;;;5.82;93.86;94915.28;5056764;28;20216;-72
2022/01/05 06:38:18;;;;;;;0.57;0.57;;;;;;;5.96;94.48;94915.25;5057023;28;20663;-71
2022/01/05 06:40:44;;;;;;;1.47;0.70;;;;;;;5.67;94.57;94922.25;5056802;28;20676;-72
2022/01/05 06:43:11;;;;;;;0.20;0.20;;;;;;;5.57;94.48;94917.28;5056764;28;20213;-71
2022/01/05 06:45:37;;;;;;;0.20;0.20;;;;;;;5.64;93.90;94917.41;5057036;28;20231;-72
2022/01/05 06:48:04;;;;;;;1.17;0.97;;;;;;;5.82;94.15;94917.91;5056182;28;20209;-72
2022/01/05 06:50:31;;;;;;;0.40;0.40;;;;;;;5.73;93.92;94926.78;5056872;28;20216;-72
2022/01/05 06:52:58;;;;;;;0.20;0.20;;;;;;;5.54;94.61;94937.75;5056646;28;20574;-72
2022/01/05 06:55:26;;;;;;;1.50;0.83;;;;;;;5.81;95.29;94942.41;5056951;28;20228;-72
2022/01/05 06:57:52;;;;;;;0.60;0.60;;;;;;;5.40;95.76;94948.16;5056342;28;20212;-72
2022/01/05 07:00:21;;;;;;;0.80;0.57;;;;;;;5.80;95.55;94948.59;5057265;28;20200;-71
2022/01/05 07:02:47;;;;;;;1.07;0.60;;;;;;;5.59;94.89;94953.69;5056188;28;20208;-71
2022/01/05 07:05:14;;;;;;;0.30;0.30;;;;;;;5.66;94.68;94970.28;5056236;28;20224;-71
2022/01/05 07:07:41;;;;;;;1.03;0.93;;;;;;;5.53;95.90;94983.13;5056783;28;21197;-72
2022/01/05 07:10:09;;;;;;;0.60;0.60;;;;;;;6.02;95.48;94993.00;5057097;28;20204;-71
2022/01/05 07:12:38;;;;;;;1.10;0.80;;;;;;;5.72;96.43;94998.31;5055843;28;20197;-72
2022/01/05 07:15:07;;;;;;;0.40;0.40;;;;;;;5.72;96.85;95014.00;5057064;28;20251;-72
2022/01/05 07:17:33;;;;;;;0.30;0.30;;;;;;;5.50;96.58;95035.75;5056485;28;20215;-71
2022/01/05 07:20:00;;;;;;;0.50;0.40;;;;;;;5.32;96.61;95040.47;5056789;28;21301;-71
2022/01/05 07:22:27;;;;;;;0.40;0.40;;;;;;;5.34;94.93;95051.53;5055972;28;20192;-71
2022/01/05 07:24:54;;;;;;;0.50;0.50;;;;;;;5.16;90.69;95058.03;5056391;28;20223;-71
2022/01/05 07:27:21;;;;;;;0.33;0.33;;;;;;;5.09;90.87;95065.75;5056111;28;20223;-71
2022/01/05 07:29:49;;;;;;;0.40;0.40;;;;;;;5.32;90.56;95069.19;5056697;28;20211;-71
2022/01/05 07:32:15;;;;;;;0.40;0.40;;;;;;;4.99;90.00;95072.97;5051882;28;20204;-71
2022/01/05 07:34:42;;;;;;;0.40;0.40;;;;;;;4.82;89.08;95079.25;5056615;28;21389;-71
2022/01/05 07:37:09;;;;;;;0.50;0.50;;;;;;;4.53;89.23;95093.88;5056492;28;20204;-71
2022/01/05 07:39:36;;;;;;;2.33;0.60;;;;;;;4.60;91.02;95099.25;5055823;28;20324;-71
2022/01/05 07:42:04;;;;;;;0.80;0.63;;;;;;;4.58;90.05;95098.59;5056850;28;20219;-71
2022/01/05 07:44:30;;;;;;;1.60;0.93;;;;;;;4.67;89.79;95118.44;5055436;28;20212;-71
2022/01/05 07:46:58;;;;;;;1.83;0.73;;;;;;;4.56;90.40;95118.81;5056412;28;20231;-71
2022/01/05 07:49:24;;;;;;;0.73;0.70;;;;;;;4.33;90.26;95129.13;5056106;28;20211;-71
2022/01/05 07:51:51;;;;;;;1.07;0.60;;;;;;;4.31;89.57;95132.88;5057052;28;20209;-71
2022/01/05 07:54:17;;;;;;;0.50;0.40;;;;;;;4.49;89.41;95134.34;5054964;28;20411;-72
2022/01/05 07:56:44;;;;;;;0.77;0.77;;;;;;;4.34;89.62;95133.38;5056520;28;20204;-71
2022/01/05 07:59:10;;;;;;;0.73;0.67;;;;;;;4.47;88.30;95153.75;5056220;28;20695;-72
2022/01/05 08:01:37;;;;;;;0.70;0.70;;;;;;;4.48;87.84;95155.34;5058818;28;20779;-71
2022/01/05 08:04:05;;;;;;;0.50;0.50;;;;;;;4.78;88.00;95162.44;5059187;28;20200;-71
2022/01/05 08:06:32;;;;;;;0.77;0.73;;;;;;;4.50;86.77;95163.81;5060251;28;20208;-71
2022/01/05 08:09:00;;;;;;;1.20;1.10;;;;;;;4.39;86.12;95171.97;5059569;28;20607;-72
2022/01/05 08:11:26;;;;;;;0.93;0.80;;;;;;;4.60;86.50;95170.47;5059501;28;20197;-71
2022/01/05 08:13:53;;;;;;;1.10;1.03;;;;;;;4.73;85.11;95168.16;5060116;28;20239;-71
2022/01/05 08:16:20;;;;;;;0.83;0.80;;;;;;;4.80;85.49;95176.97;5059486;28;20246;-71
2022/01/05 08:18:47;;;;;;;0.63;0.63;;;;;;;4.62;84.55;95188.56;5059159;28;20206;-71
2022/01/05 08:21:16;;;;;;;0.50;0.50;;;;;;;4.77;85.41;95184.31;5059433;28;20220;-71
2022/01/05 08:23:42;;;;;;;2.27;0.97;;;;;;;4.66;84.81;95190.69;5059134;28;20201;-71
2022/01/05 08:26:09;;;;;;;0.70;0.70;;;;;;;4.70;85.05;95196.38;5058954;28;20224;-71
2022/01/05 08:28:36;;;;;;;2.10;0.90;;;;;;;4.82;84.87;95195.84;5059295;28;20302;-71
2022/01/05 08:31:02;;;;;;;0.60;0.60;;;;;;;5.07;84.28;95193.00;5059442;28;20208;-72
2022/01/05 08:33:29;;;;;;;0.70;0.70;;;;;;;4.90;84.15;95194.06;5055105;28;20209;-71
2022/01/05 08:35:56;;;;;;;0.30;0.30;;;;;;;4.72;84.54;95199.63;5058693;28;20231;-71
2022/01/05 08:38:24;;;;;;;0.50;0.50;;;;;;;4.74;85.54;95197.69;5059162;28;20735;-71
2022/01/05 08:40:50;;;;;;;1.10;0.63;;;;;;;4.95;84.15;95204.81;5058447;28;20201;-71
2022/01/05 08:43:17;;;;;;;0.83;0.83;;;;;;;4.60;85.34;95209.59;5058569;28;20287;-72
2022/01/05 08:45:44;;;;;;;2.30;0.53;;;;;;;5.03;84.95;95202.16;5058911;28;20723;-71
2022/01/05 08:48:11;;;;;;;0.73;0.63;;;;;;;4.93;84.00;95206.75;5058996;28;20218;-71
2022/01/05 08:50:39;;;;;;;0.70;0.70;;;;;;;5.20;84.79;95214.16;5058489;28;20273;-71
2022/01/05 08:53:06;;;;;;;1.10;1.00;;;;;;;5.04;85.55;95218.63;5058664;28;20207;-71
2022/01/05 08:55:38;;;;;;;2.20;0.67;;;;;;;5.22;84.34;95220.03;5058501;28;20231;-71
2022/01/05 08:58:05;;;;;;;1.07;0.60;;;;;;;4.59;84.88;95238.47;5059045;28;20208;-71
2022/01/05 09:00:32;;;;;;;1.97;0.50;;;;;;;4.58;84.09;95244.66;5058477;28;20696;-71
2022/01/05 09:02:59;;;;;;;1.00;0.83;;;;;;;4.53;85.04;95246.94;5058075;28;20622;-71
2022/01/05 09:05:25;;;;;;;0.70;0.70;;;;;;;4.77;86.24;95260.78;5058444;28;20220;-71
2022/01/05 09:07:52;;;;;;;1.00;0.90;;;;;;;4.76;85.29;95268.78;5058449;28;20202;-71
2022/01/05 09:10:18;;;;;;;0.63;0.63;;;;;;;5.00;85.33;95283.44;5058578;28;20762;-71
2022/01/05 09:12:46;;;;;;;0.37;0.37;;;;;;;4.80;85.84;95285.72;5057528;28;20537;-71
2022/01/05 09:15:13;;;;;;;0.53;0.50;;;;;;;4.64;85.99;95289.16;5058576;28;20231;-71
2022/01/05 09:17:39;;;;;;;3.43;0.93;;;;;;;4.85;85.84;95300.72;5058450;28;20564;-71
2022/01/05 09:20:07;;;;;;;2.37;0.77;;;;;;;4.80;86.63;95297.00;5058804;28;20203;-71
2022/01/05 09:22:37;;;;;;;2.93;1.63;;;;;;;4.72;85.96;95306.63;5057432;28;20232;-71
2022/01/05 09:25:05;;;;;;;0.90;0.90;;;;;;;4.80;86.19;95317.03;5059892;28;20224;-71
2022/01/05 09:27:32;;;;;;;0.50;0.50;;;;;;;4.55;86.80;95318.03;5058181;28;20201;-71
2022/01/05 09:29:59;;;;;;;1.80;1.27;;;;;;;4.54;86.67;95319.81;5058140;28;21110;-71
2022/01/05 09:32:26;;;;;;;1.67;1.23;;;;;;;4.27;85.32;95332.34;5054591;28;20221;-71
2022/01/05 09:34:52;;;;;;;0.50;0.50;;;;;;;4.29;85.48;95338.25;5056998;28;20227;-71
2022/01/05 09:37:23;;;;;;;0.50;0.50;;;;;;;4.29;83.97;95349.47;5056462;28;20207;-71
2022/01/05 09:42:34;;;;;;;4.53;1.03;;;;;;;4.30;81.11;95355.50;5056479;28;20214;-71
2022/01/05 09:45:17;;;;;;;0.43;0.43;;;;;;;4.62;80.22;95351.16;5056977;28;20227;-71
2022/01/05 09:47:52;;;;;;;1.70;1.60;;;;;;;4.51;79.68;95363.69;5056938;28;20207;-71
2022/01/05 09:50:20;;;;;;;0.77;0.77;;;;;;;4.46;80.95;95347.72;5056587;28;20865;-71
2022/01/05 09:52:47;;;;;;;0.50;0.50;;;;;;;4.51;80.33;95359.28;5055879;28;20207;-71
2022/01/05 09:55:16;;;;;;;1.23;1.13;;;;;;;4.55;80.21;95360.59;5056579;28;20232;-71
2022/01/05 09:57:45;;;;;;;0.70;0.70;;;;;;;4.47;78.73;95375.44;5056237;28;20668;-71
2022/01/05 10:00:16;;;;;;;1.63;1.10;;;;;;;4.26;75.12;95383.69;5056718;28;20234;-71
2022/01/05 10:02:45;;;;;;;2.10;0.90;;;;;;;4.04;75.57;95383.47;5055840;28;20647;-71
2022/01/05 10:05:15;;;;;;;1.27;0.87;;;;;;;4.26;75.15;95385.47;5057387;28;20230;-71
2022/01/05 10:07:42;;;;;;;1.13;1.03;;;;;;;4.00;74.30;95392.56;5056258;28;20206;-71
2022/01/05 10:10:10;;;;;;;0.70;0.70;;;;;;;3.86;73.74;95398.38;5056327;28;20685;-71
2022/01/05 10:12:36;;;;;;;4.93;0.80;;;;;;;3.73;73.14;95407.63;5055867;28;20200;-70
2022/01/05 10:15:04;;;;;;;1.33;0.60;;;;;;;3.71;72.29;95394.72;5056467;28;20232;-71
2022/01/05 10:17:33;;;;;;;1.77;1.10;;;;;;;4.11;71.15;95396.69;5056024;28;20206;-71
2022/01/05 10:20:05;;;;;;;0.57;0.53;;;;;;;4.11;69.67;95396.69;5056022;28;20207;-71
2022/01/05 10:22:33;;;;;;;0.40;0.40;;;;;;;4.06;69.08;95415.41;5054881;28;20308;-71
2022/01/05 10:25:01;;;;;;;0.60;0.60;;;;;;;4.21;67.27;95411.19;5056659;28;20231;-71
2022/01/05 10:27:29;;;;;;;1.13;1.03;;;;;;;4.41;67.78;95415.19;5056111;28;20203;-71
2022/01/05 10:29:58;;;;;;;0.50;0.50;;;;;;;4.51;67.84;95410.63;5055724;28;20706;-71
2022/01/05 10:32:26;;;;;;;0.40;0.40;;;;;;;4.49;67.56;95409.97;5052148;28;20201;-71
2022/01/05 10:35:06;;;;;;;0.30;0.30;;;;;;;4.94;67.60;95413.78;5057364;28;20285;-70
2022/01/05 10:37:33;;;;;;;0.63;0.63;;;;;;;4.12;68.62;95435.63;5057296;28;20199;-71
2022/01/05 10:40:09;;;;;;;0.63;0.60;;;;;;;4.44;68.71;95430.50;5056678;28;20962;-71
2022/01/05 10:42:37;;;;;;;1.60;0.87;;;;;;;4.24;71.28;95443.00;5056233;28;20325;-71
2022/01/05 10:45:06;;;;;;;2.23;1.13;;;;;;;4.45;70.71;95442.56;5056771;28;20224;-71
2022/01/05 10:47:33;;;;;;;1.00;0.70;;;;;;;4.35;70.64;95447.94;5056824;28;20211;-71
2022/01/05 10:50:01;;;;;;;1.97;1.00;;;;;;;4.24;69.89;95455.22;5056920;28;20204;-71
2022/01/05 10:52:29;;;;;;;0.60;0.60;;;;;;;4.23;70.60;95453.59;5053054;28;20208;-71
2022/01/05 10:55:08;;;;;;;8.50;1.47;;;;;;;4.38;71.03;95457.22;5054607;28;20231;-71
2022/01/05 10:57:34;;;;;;;2.37;1.40;;;;;;;4.38;70.10;95457.22;5055389;28;20591;-71
2022/01/05 11:00:01;;;;;;;3.57;0.73;;;;;;;4.53;70.32;95455.63;5055651;28;20210;-71
2022/01/05 11:02:30;;;;;;;0.97;0.90;;;;;;;4.59;71.29;95455.81;5054990;28;20208;-71
2022/01/05 11:05:14;;;;;;;0.60;0.50;;;;;;;5.10;70.79;95450.31;5053219;28;20239;-71
2022/01/05 11:07:42;;;;;;;0.40;0.40;;;;;;;4.86;70.09;95453.75;5055616;28;20227;-71
2022/01/05 11:10:11;;;;;;;0.70;0.70;;;;;;;5.14;68.92;95457.69;5055169;28;20297;-71
2022/01/05 11:12:40;;;;;;;1.03;0.87;;;;;;;5.01;69.03;95457.31;5054541;28;20203;-70
2022/01/05 11:15:28;;;;;;;0.87;0.50;;;;;;;5.11;69.43;95455.38;5055192;28;20754;-71
2022/01/05 11:18:12;;;;;;;0.53;0.53;;;;;;;5.38;68.18;95460.28;5055178;28;20209;-71
2022/01/05 11:20:51;;;;;;;0.33;0.33;;;;;;;4.98;70.81;95447.22;5055060;28;20649;-70
2022/01/05 11:23:19;;;;;;;0.50;0.50;;;;;;;5.04;69.37;95446.56;5054995;28;20200;-72
2022/01/05 11:25:46;;;;;;;0.60;0.60;;;;;;;5.05;69.13;95450.00;5054956;28;20220;-71
2022/01/05 11:28:14;;;;;;;0.57;0.50;;;;;;;5.30;68.44;95451.63;5055949;28;20207;-70
2022/01/05 11:30:42;;;;;;;1.40;0.63;;;;;;;5.19;66.54;95457.19;5056290;28;20273;-70
2022/01/05 11:33:10;;;;;;;0.80;0.70;;;;;;;4.84;63.98;95467.94;5052540;28;20208;-71
2022/01/05 11:35:36;;;;;;;1.97;0.90;;;;;;;4.68;64.39;95472.31;5058823;28;20231;-71
2022/01/05 11:38:05;;;;;;;0.30;0.30;;;;;;;4.86;61.31;95468.56;5059782;28;20253;-70
2022/01/05 11:40:34;;;;;;;0.67;0.57;;;;;;;4.98;62.16;95477.75;5059207;28;20223;-70
2022/01/05 11:43:03;;;;;;;0.30;0.30;;;;;;;5.62;62.10;95483.78;5059219;28;20246;-71
2022/01/05 11:45:33;;;;;;;1.43;0.80;;;;;;;5.00;61.90;95473.16;5060899;28;20593;-71